createdAt,value
2023-05-13T00:00:31.265Z,10.86
2023-05-13T00:02:34.103Z,10.85
2023-05-13T00:04:37.086Z,10.23
2023-05-13T00:06:39.946Z,10.34
2023-05-13T00:08:42.725Z,6.67
2023-05-13T00:10:45.499Z,10.13
2023-05-13T00:12:48.598Z,10.20
2023-05-13T00:14:52.681Z,10.19
2023-05-13T00:16:55.604Z,9.65
2023-05-13T00:18:58.924Z,9.87
2023-05-13T00:21:01.706Z,10.10
2023-05-13T00:23:04.538Z,9.95
2023-05-13T00:25:07.644Z,9.91
2023-05-13T00:27:11.348Z,10.12
2023-05-13T00:29:14.609Z,9.88
2023-05-13T00:31:18.858Z,9.84
2023-05-13T00:33:21.614Z,9.96
2023-05-13T00:35:24.378Z,9.92
2023-05-13T00:37:27.182Z,9.84
2023-05-13T00:39:29.919Z,9.80
2023-05-13T00:41:33.022Z,9.74
2023-05-13T00:43:35.806Z,9.98
2023-05-13T00:45:39.243Z,10.05
2023-05-13T00:47:44.124Z,10.10
2023-05-13T00:49:47.038Z,9.89
2023-05-13T00:51:50.603Z,10.24
2023-05-13T00:53:53.610Z,10.30
2023-05-13T00:55:56.387Z,10.40
2023-05-13T00:58:00.292Z,10.25
2023-05-13T01:00:05.778Z,10.32
2023-05-13T01:02:17.177Z,10.22
2023-05-13T01:04:32.056Z,10.21
2023-05-13T01:06:46.507Z,10.17
2023-05-13T01:09:08.810Z,10.13
2023-05-13T01:11:15.961Z,10.08
2023-05-13T01:13:23.649Z,9.75
2023-05-13T01:15:27.852Z,9.98
2023-05-13T01:17:34.295Z,9.82
2023-05-13T01:19:43.061Z,9.84
2023-05-13T01:21:54.034Z,9.94
2023-05-13T01:23:58.128Z,9.98
2023-05-13T01:26:01.309Z,9.99
2023-05-13T01:28:06.486Z,9.91
2023-05-13T01:30:11.923Z,9.95
2023-05-13T01:32:15.329Z,10.05
2023-05-13T01:34:19.211Z,10.00
2023-05-13T01:36:22.270Z,10.12
2023-05-13T01:38:28.857Z,10.04
2023-05-13T01:40:35.418Z,10.00
2023-05-13T01:42:41.229Z,9.48
2023-05-13T01:44:44.866Z,9.87
2023-05-13T01:46:50.505Z,9.97
2023-05-13T01:48:54.137Z,10.09
2023-05-13T01:50:57.303Z,10.21
2023-05-13T01:53:00.090Z,10.27
2023-05-13T01:55:04.471Z,10.24
2023-05-13T01:57:07.896Z,10.02
2023-05-13T01:59:11.362Z,10.05
2023-05-13T02:01:14.139Z,9.85
2023-05-13T02:03:17.245Z,9.26
2023-05-13T02:05:20.430Z,9.75
2023-05-13T02:07:23.379Z,9.96
2023-05-13T02:09:27.076Z,10.03
2023-05-13T02:11:31.269Z,10.07
2023-05-13T02:13:34.149Z,10.06
2023-05-13T02:15:36.943Z,10.15
2023-05-13T02:17:41.031Z,10.06
2023-05-13T02:19:43.851Z,10.06
2023-05-13T02:21:46.717Z,9.95
2023-05-13T02:23:49.459Z,10.02
2023-05-13T02:25:52.193Z,10.09
2023-05-13T02:27:56.257Z,10.00
2023-05-13T02:29:59.068Z,10.04
2023-05-13T02:32:02.168Z,9.55
2023-05-13T02:34:05.076Z,10.18
2023-05-13T02:36:08.172Z,10.08
2023-05-13T02:38:12.208Z,9.97
2023-05-13T02:40:15.162Z,9.95
2023-05-13T02:42:18.237Z,10.02
2023-05-13T02:44:22.394Z,9.98
2023-05-13T02:46:26.012Z,10.12
2023-05-13T02:48:30.464Z,9.80
2023-05-13T02:50:33.217Z,10.13
2023-05-13T02:52:36.185Z,10.08
2023-05-13T02:54:39.291Z,10.03
2023-05-13T02:56:42.111Z,9.95
2023-05-13T02:58:44.983Z,10.04
2023-05-13T03:00:49.454Z,10.02
2023-05-13T03:02:56.002Z,9.99
2023-05-13T03:04:59.029Z,10.00
2023-05-13T03:07:01.860Z,9.44
2023-05-13T03:09:04.854Z,9.91
2023-05-13T03:11:08.965Z,9.98
2023-05-13T03:13:11.724Z,9.87
2023-05-13T03:15:16.275Z,9.95
2023-05-13T03:17:21.317Z,10.04
2023-05-13T03:19:25.489Z,9.83
2023-05-13T03:21:29.617Z,9.87
2023-05-13T03:23:34.614Z,9.89
2023-05-13T03:25:38.384Z,9.86
2023-05-13T03:27:41.725Z,9.77
2023-05-13T03:29:45.802Z,9.74
2023-05-13T03:31:49.001Z,9.74
2023-05-13T03:33:53.142Z,9.49
2023-05-13T03:35:56.208Z,9.59
2023-05-13T03:38:03.578Z,9.57
2023-05-13T03:40:08.532Z,9.77
2023-05-13T03:42:12.116Z,9.69
2023-05-13T03:44:14.938Z,9.73
2023-05-13T03:46:17.789Z,9.65
2023-05-13T03:48:20.776Z,9.76
2023-05-13T03:50:25.051Z,9.71
2023-05-13T03:52:28.676Z,9.75
2023-05-13T03:54:31.376Z,9.77
2023-05-13T03:56:34.070Z,9.68
2023-05-13T03:58:38.467Z,9.48
2023-05-13T04:00:41.578Z,9.44
2023-05-13T04:02:44.513Z,9.52
2023-05-13T04:04:48.473Z,9.47
2023-05-13T04:06:52.576Z,9.50
2023-05-13T04:08:55.281Z,9.50
2023-05-13T04:10:57.955Z,9.61
2023-05-13T04:13:02.086Z,9.50
2023-05-13T04:15:05.454Z,9.53
2023-05-13T04:17:08.224Z,9.62
2023-05-13T04:19:11.620Z,9.49
2023-05-13T04:21:14.335Z,9.42
2023-05-13T04:23:18.375Z,9.35
2023-05-13T04:25:21.356Z,9.50
2023-05-13T04:27:24.539Z,9.39
2023-05-13T04:29:31.651Z,9.32
2023-05-13T04:31:34.604Z,9.40
2023-05-13T04:33:37.591Z,9.38
2023-05-13T04:35:40.382Z,9.40
2023-05-13T04:37:44.713Z,9.56
2023-05-13T04:39:51.952Z,9.66
2023-05-13T04:41:58.313Z,9.53
2023-05-13T04:44:01.359Z,9.47
2023-05-13T04:46:05.133Z,9.44
2023-05-13T04:48:08.601Z,9.42
2023-05-13T04:50:12.066Z,9.61
2023-05-13T04:52:16.191Z,9.71
2023-05-13T04:54:19.411Z,9.75
2023-05-13T04:56:23.582Z,9.58
2023-05-13T04:58:26.698Z,9.68
2023-05-13T05:00:29.591Z,9.62
2023-05-13T05:02:32.419Z,9.66
2023-05-13T05:04:35.250Z,9.72
2023-05-13T05:06:40.616Z,9.80
2023-05-13T05:08:44.073Z,9.91
2023-05-13T05:10:47.057Z,9.87
2023-05-13T05:12:51.962Z,9.65
2023-05-13T05:14:55.126Z,9.52
2023-05-13T05:16:58.336Z,9.77
2023-05-13T05:19:03.995Z,9.87
2023-05-13T05:21:07.453Z,9.94
2023-05-13T05:23:10.625Z,10.04
2023-05-13T05:25:14.099Z,10.02
2023-05-13T05:27:17.750Z,10.00
2023-05-13T05:29:21.935Z,9.93
2023-05-13T05:31:27.028Z,9.78
2023-05-13T05:33:30.867Z,9.79
2023-05-13T05:35:37.005Z,9.97
2023-05-13T05:37:40.313Z,10.10
2023-05-13T05:39:43.184Z,10.02
2023-05-13T05:41:47.159Z,10.08
2023-05-13T05:43:49.994Z,10.25
2023-05-13T05:45:55.742Z,10.28
2023-05-13T05:47:58.760Z,10.32
2023-05-13T05:50:02.191Z,10.43
2023-05-13T05:52:06.356Z,10.32
2023-05-13T05:54:09.185Z,10.58
2023-05-13T05:56:15.045Z,10.60
2023-05-13T05:58:19.701Z,11.03
2023-05-13T06:00:22.910Z,11.16
2023-05-13T06:02:27.386Z,11.31
2023-05-13T06:04:30.401Z,11.90
2023-05-13T06:06:33.855Z,11.40
2023-05-13T06:08:36.697Z,10.83
2023-05-13T06:10:39.805Z,10.91
2023-05-13T06:12:42.979Z,10.89
2023-05-13T06:14:45.778Z,10.29
2023-05-13T06:16:48.497Z,9.85
2023-05-13T06:18:52.738Z,10.27
2023-05-13T06:20:56.019Z,10.28
2023-05-13T06:22:58.824Z,10.43
2023-05-13T06:25:01.628Z,10.67
2023-05-13T06:27:04.730Z,10.78
2023-05-13T06:29:07.490Z,10.57
2023-05-13T06:31:10.293Z,10.54
2023-05-13T06:33:13.452Z,10.52
2023-05-13T06:35:17.911Z,10.65
2023-05-13T06:37:20.900Z,10.88
2023-05-13T06:39:23.752Z,11.03
2023-05-13T06:41:27.727Z,11.16
2023-05-13T06:43:36.351Z,10.99
2023-05-13T06:45:51.681Z,11.04
2023-05-13T06:47:54.799Z,11.53
2023-05-13T06:49:57.566Z,11.32
2023-05-13T06:52:01.715Z,11.03
2023-05-13T06:54:04.633Z,11.01
2023-05-13T06:56:08.081Z,10.90
2023-05-13T06:58:11.587Z,10.86
2023-05-13T07:00:15.058Z,11.15
2023-05-13T07:02:17.798Z,11.26
2023-05-13T07:04:20.527Z,11.17
2023-05-13T07:06:23.304Z,10.94
2023-05-13T07:08:27.560Z,10.73
2023-05-13T07:10:30.286Z,11.09
2023-05-13T07:12:33.110Z,11.13
2023-05-13T07:14:35.969Z,11.37
2023-05-13T07:16:38.790Z,11.34
2023-05-13T07:18:41.580Z,11.52
2023-05-13T07:20:44.373Z,11.66
2023-05-13T07:22:47.263Z,11.78
2023-05-13T07:24:51.365Z,11.51
2023-05-13T07:26:54.112Z,11.46
2023-05-13T07:28:57.658Z,11.49
2023-05-13T07:31:00.603Z,11.26
2023-05-13T07:33:03.828Z,11.43
2023-05-13T07:35:07.696Z,11.32
2023-05-13T07:37:10.541Z,11.46
2023-05-13T07:39:13.316Z,11.69
2023-05-13T07:41:17.397Z,11.66
2023-05-13T07:43:23.830Z,11.68
2023-05-13T07:45:26.788Z,11.97
2023-05-13T07:47:31.375Z,11.72
2023-05-13T07:49:34.216Z,11.94
2023-05-13T07:51:37.519Z,12.20
2023-05-13T07:53:40.239Z,12.30
2023-05-13T07:55:43.019Z,11.60
2023-05-13T07:57:47.159Z,12.18
2023-05-13T07:59:49.956Z,12.08
2023-05-13T08:01:52.769Z,11.93
2023-05-13T08:03:55.725Z,11.53
2023-05-13T08:05:58.561Z,11.58
2023-05-13T08:08:01.809Z,11.91
2023-05-13T08:10:04.939Z,11.72
2023-05-13T08:12:08.256Z,12.03
2023-05-13T08:14:12.325Z,12.44
2023-05-13T08:16:15.095Z,12.81
2023-05-13T08:18:17.796Z,12.95
2023-05-13T08:20:20.895Z,11.74
2023-05-13T08:22:23.685Z,12.46
2023-05-13T08:24:26.394Z,12.75
2023-05-13T08:26:29.100Z,12.44
2023-05-13T08:28:31.783Z,12.54
2023-05-13T08:30:35.912Z,12.73
2023-05-13T08:32:38.701Z,12.48
2023-05-13T08:34:41.542Z,12.26
2023-05-13T08:36:44.317Z,12.24
2023-05-13T08:38:47.150Z,12.41
2023-05-13T08:40:49.920Z,12.32
2023-05-13T08:42:56.860Z,11.76
2023-05-13T08:44:59.849Z,12.12
2023-05-13T08:47:14.239Z,12.12
2023-05-13T08:49:17.336Z,12.29
2023-05-13T08:51:20.129Z,12.45
2023-05-13T08:53:26.151Z,12.84
2023-05-13T08:55:29.720Z,12.50
2023-05-13T08:57:32.566Z,12.40
2023-05-13T08:59:35.318Z,12.49
2023-05-13T09:01:39.255Z,12.46
2023-05-13T09:03:53.573Z,12.73
2023-05-13T09:05:56.394Z,12.33
2023-05-13T09:07:59.368Z,12.47
2023-05-13T09:10:02.278Z,13.78
2023-05-13T09:12:05.944Z,15.15
2023-05-13T09:14:11.882Z,14.78
2023-05-13T09:16:15.431Z,13.58
2023-05-13T09:18:19.382Z,12.73
2023-05-13T09:20:25.405Z,12.83
2023-05-13T09:22:28.263Z,12.62
2023-05-13T09:24:31.024Z,12.81
2023-05-13T09:26:33.759Z,12.67
2023-05-13T09:28:36.490Z,12.41
2023-05-13T09:30:42.608Z,12.22
2023-05-13T09:33:06.436Z,12.52
2023-05-13T09:35:17.666Z,12.52
2023-05-13T09:37:24.888Z,12.40
2023-05-13T09:39:28.159Z,12.44
2023-05-13T09:41:32.568Z,12.66
2023-05-13T09:43:35.616Z,12.56
2023-05-13T09:45:38.419Z,12.34
2023-05-13T09:47:42.023Z,12.31
2023-05-13T09:49:47.034Z,12.09
2023-05-13T09:51:49.771Z,12.40
2023-05-13T09:53:53.895Z,12.53
2023-05-13T09:55:59.950Z,12.50
2023-05-13T09:58:03.288Z,12.39
2023-05-13T10:00:11.042Z,12.82
2023-05-13T10:02:19.752Z,12.84
2023-05-13T10:04:23.207Z,12.99
2023-05-13T10:06:28.855Z,12.87
2023-05-13T10:08:31.935Z,13.14
2023-05-13T10:10:36.515Z,12.80
2023-05-13T10:12:40.614Z,12.90
2023-05-13T10:14:44.640Z,12.74
2023-05-13T10:16:47.997Z,12.94
2023-05-13T10:18:51.619Z,13.01
2023-05-13T10:20:55.554Z,12.89
2023-05-13T10:22:58.965Z,12.92
2023-05-13T10:25:03.907Z,12.80
2023-05-13T10:27:08.322Z,12.67
2023-05-13T10:29:12.098Z,12.60
2023-05-13T10:31:14.955Z,12.47
2023-05-13T10:33:18.319Z,12.56
2023-05-13T10:35:23.520Z,11.95
2023-05-13T10:37:49.871Z,12.64
2023-05-13T10:40:31.641Z,11.39
2023-05-13T10:42:57.435Z,12.25
2023-05-13T10:45:00.273Z,12.42
2023-05-13T10:47:03.176Z,12.71
2023-05-13T10:49:06.989Z,12.72
2023-05-13T10:51:11.354Z,12.25
2023-05-13T10:53:21.637Z,12.67
2023-05-13T10:55:24.968Z,12.80
2023-05-13T10:57:29.402Z,12.80
2023-05-13T10:59:35.319Z,12.85
2023-05-13T11:01:43.469Z,12.88
2023-05-13T11:03:56.976Z,12.97
2023-05-13T11:06:04.496Z,13.09
2023-05-13T11:08:07.340Z,13.34
2023-05-13T11:10:27.520Z,13.25
2023-05-13T11:12:30.562Z,13.33
2023-05-13T11:14:35.017Z,13.31
2023-05-13T11:16:38.493Z,13.49
2023-05-13T11:18:41.450Z,13.78
2023-05-13T11:20:53.447Z,13.65
2023-05-13T11:22:56.285Z,13.58
2023-05-13T11:25:08.673Z,13.12
2023-05-13T11:27:16.242Z,13.40
2023-05-13T11:29:32.319Z,13.67
2023-05-13T11:31:52.941Z,13.14
2023-05-13T11:34:07.534Z,13.69
2023-05-13T11:36:11.083Z,13.74
2023-05-13T11:38:24.305Z,13.22
2023-05-13T11:40:29.264Z,13.51
2023-05-13T11:42:32.039Z,13.67
2023-05-13T11:44:35.749Z,13.78
2023-05-13T11:46:38.588Z,14.02
2023-05-13T11:48:44.156Z,14.20
2023-05-13T11:50:46.934Z,14.40
2023-05-13T11:52:53.553Z,14.46
2023-05-13T11:54:58.325Z,14.41
2023-05-13T11:57:02.079Z,14.50
2023-05-13T11:59:15.556Z,14.31
2023-05-13T12:01:18.252Z,14.07
2023-05-13T12:03:20.994Z,14.25
2023-05-13T12:05:26.763Z,14.34
2023-05-13T12:07:29.934Z,14.44
2023-05-13T12:09:32.668Z,14.22
2023-05-13T12:11:36.072Z,13.56
2023-05-13T12:13:38.876Z,14.48
2023-05-13T12:15:43.102Z,14.45
2023-05-13T12:17:46.690Z,14.40
2023-05-13T12:20:08.738Z,14.54
2023-05-13T12:22:12.870Z,14.48
2023-05-13T12:24:19.703Z,14.52
2023-05-13T12:26:22.456Z,14.86
2023-05-13T12:28:26.854Z,14.89
2023-05-13T12:30:34.920Z,14.85
2023-05-13T12:32:47.044Z,14.74
2023-05-13T12:34:51.484Z,14.68
2023-05-13T12:36:54.237Z,14.45
2023-05-13T12:39:03.499Z,13.89
2023-05-13T12:41:13.370Z,14.38
2023-05-13T12:43:18.835Z,14.31
2023-05-13T12:45:22.773Z,14.09
2023-05-13T12:47:25.976Z,14.09
2023-05-13T12:49:28.803Z,14.11
2023-05-13T12:51:32.919Z,14.09
2023-05-13T12:53:35.759Z,13.31
2023-05-13T12:55:40.346Z,13.96
2023-05-13T12:57:43.235Z,13.62
2023-05-13T12:59:46.730Z,13.67
2023-05-13T13:01:49.840Z,13.87
2023-05-13T13:03:52.877Z,13.98
2023-05-13T13:05:55.749Z,13.88
2023-05-13T13:07:58.606Z,13.18
2023-05-13T13:10:01.854Z,13.47
2023-05-13T13:12:06.495Z,13.40
2023-05-13T13:14:09.466Z,13.57
2023-05-13T13:16:13.182Z,13.61
2023-05-13T13:18:15.998Z,13.56
2023-05-13T13:20:18.742Z,13.56
2023-05-13T13:22:21.502Z,13.54
2023-05-13T13:24:24.298Z,13.77
2023-05-13T13:26:27.136Z,13.60
2023-05-13T13:28:31.684Z,13.27
2023-05-13T13:30:34.599Z,13.60
2023-05-13T13:32:37.485Z,13.46
2023-05-13T13:34:40.266Z,13.52
2023-05-13T13:36:43.039Z,13.64
2023-05-13T13:38:46.007Z,13.75
2023-05-13T13:40:48.758Z,13.41
2023-05-13T13:42:51.544Z,13.48
2023-05-13T13:44:55.647Z,13.84
2023-05-13T13:46:58.445Z,13.78
2023-05-13T13:49:03.893Z,13.96
2023-05-13T13:51:13.092Z,13.85
2023-05-13T13:53:15.873Z,13.83
2023-05-13T13:55:19.009Z,13.77
2023-05-13T13:57:21.774Z,13.70
2023-05-13T13:59:24.529Z,13.66
2023-05-13T14:01:28.825Z,13.64
2023-05-13T14:03:31.611Z,13.65
2023-05-13T14:05:34.435Z,13.74
2023-05-13T14:07:37.763Z,13.72
2023-05-13T14:09:40.519Z,13.68
2023-05-13T14:11:43.303Z,13.75
2023-05-13T14:13:46.030Z,13.99
2023-05-13T14:15:48.848Z,13.92
2023-05-13T14:17:52.957Z,13.68
2023-05-13T14:19:56.080Z,13.99
2023-05-13T14:21:58.808Z,14.08
2023-05-13T14:24:01.532Z,14.07
2023-05-13T14:26:04.393Z,13.91
2023-05-13T14:28:07.243Z,13.98
2023-05-13T14:30:10.655Z,14.00
2023-05-13T14:32:13.391Z,13.98
2023-05-13T14:34:17.525Z,13.74
2023-05-13T14:36:27.436Z,13.42
2023-05-13T14:38:31.169Z,14.10
2023-05-13T14:40:34.322Z,13.98
2023-05-13T14:42:37.046Z,13.84
2023-05-13T14:44:41.371Z,13.79
2023-05-13T14:46:44.286Z,14.18
2023-05-13T14:48:47.060Z,14.04
2023-05-13T14:50:51.781Z,14.40
2023-05-13T14:52:54.518Z,14.58
2023-05-13T14:54:57.242Z,14.55
2023-05-13T14:56:59.993Z,14.69
2023-05-13T14:59:03.219Z,14.84
2023-05-13T15:01:06.134Z,15.00
2023-05-13T15:03:09.118Z,14.78
2023-05-13T15:05:12.528Z,14.85
2023-05-13T15:07:16.627Z,15.01
2023-05-13T15:09:19.671Z,15.00
2023-05-13T15:11:23.199Z,14.91
2023-05-13T15:13:27.246Z,14.73
2023-05-13T15:15:30.041Z,14.77
2023-05-13T15:17:32.914Z,14.76
2023-05-13T15:19:35.753Z,14.77
2023-05-13T15:21:38.679Z,14.75
2023-05-13T15:23:42.809Z,14.71
2023-05-13T15:25:45.812Z,14.81
2023-05-13T15:27:48.549Z,14.79
2023-05-13T15:29:51.260Z,14.73
2023-05-13T15:31:54.695Z,14.83
2023-05-13T15:33:57.470Z,14.67
2023-05-13T15:36:01.088Z,14.86
2023-05-13T15:38:04.503Z,15.06
2023-05-13T15:40:09.928Z,15.16
2023-05-13T15:42:12.651Z,15.24
2023-05-13T15:44:15.378Z,14.72
2023-05-13T15:46:18.501Z,15.31
2023-05-13T15:48:21.385Z,15.35
2023-05-13T15:50:25.941Z,15.41
2023-05-13T15:52:28.652Z,15.33
2023-05-13T15:54:31.402Z,15.10
2023-05-13T15:56:35.661Z,15.03
2023-05-13T15:58:38.392Z,15.04
2023-05-13T16:00:41.429Z,14.94
2023-05-13T16:02:44.323Z,14.84
2023-05-13T16:04:47.292Z,14.69
2023-05-13T16:06:50.140Z,14.61
2023-05-13T16:08:56.288Z,14.73
2023-05-13T16:10:59.483Z,14.75
2023-05-13T16:13:03.617Z,14.89
2023-05-13T16:15:07.400Z,14.95
2023-05-13T16:17:10.165Z,14.89
2023-05-13T16:19:13.038Z,14.88
2023-05-13T16:21:16.033Z,14.90
2023-05-13T16:23:18.769Z,14.88
2023-05-13T16:25:23.594Z,14.84
2023-05-13T16:27:28.240Z,14.85
2023-05-13T16:29:32.358Z,14.80
2023-05-13T16:31:35.261Z,14.82
2023-05-13T16:33:38.037Z,14.71
2023-05-13T16:35:40.762Z,14.24
2023-05-13T16:37:43.505Z,14.68
2023-05-13T16:39:46.368Z,14.68
2023-05-13T16:41:49.115Z,14.61
2023-05-13T16:43:51.857Z,14.62
2023-05-13T16:45:55.969Z,14.59
2023-05-13T16:47:58.749Z,14.50
2023-05-13T16:50:01.663Z,14.41
2023-05-13T16:52:04.689Z,14.40
2023-05-13T16:54:07.460Z,14.32
2023-05-13T16:56:10.201Z,14.43
2023-05-13T16:58:13.197Z,14.25
2023-05-13T17:00:16.828Z,14.36
2023-05-13T17:02:20.927Z,14.19
2023-05-13T17:04:23.914Z,13.83
2023-05-13T17:06:27.002Z,14.20
2023-05-13T17:08:29.997Z,14.16
2023-05-13T17:10:32.745Z,14.19
2023-05-13T17:12:35.563Z,14.02
2023-05-13T17:14:38.277Z,14.23
2023-05-13T17:16:41.977Z,14.29
2023-05-13T17:18:46.224Z,14.31
2023-05-13T17:20:48.974Z,14.32
2023-05-13T17:22:51.662Z,14.21
2023-05-13T17:24:54.473Z,13.52
2023-05-13T17:26:57.268Z,14.20
2023-05-13T17:29:00.295Z,14.18
2023-05-13T17:31:03.120Z,14.22
2023-05-13T17:33:06.088Z,14.16
2023-05-13T17:35:10.885Z,14.14
2023-05-13T17:37:13.634Z,14.17
2023-05-13T17:39:16.372Z,14.14
2023-05-13T17:41:19.139Z,14.12
2023-05-13T17:43:21.848Z,13.74
2023-05-13T17:45:24.612Z,14.10
2023-05-13T17:47:27.900Z,14.01
2023-05-13T17:49:30.849Z,14.09
2023-05-13T17:51:35.022Z,14.06
2023-05-13T17:53:37.768Z,14.05
2023-05-13T17:55:40.624Z,13.97
2023-05-13T17:57:43.417Z,14.03
2023-05-13T17:59:46.129Z,14.03
2023-05-13T18:01:48.931Z,13.97
2023-05-13T18:03:51.697Z,13.98
2023-05-13T18:05:54.890Z,13.95
2023-05-13T18:07:59.722Z,13.53
2023-05-13T18:10:02.674Z,13.76
2023-05-13T18:12:06.160Z,13.77
2023-05-13T18:14:08.903Z,13.83
2023-05-13T18:16:12.192Z,13.44
2023-05-13T18:18:16.242Z,13.14
2023-05-13T18:20:19.295Z,13.67
2023-05-13T18:22:21.986Z,13.67
2023-05-13T18:24:26.162Z,13.71
2023-05-13T18:26:28.875Z,13.73
2023-05-13T18:28:31.607Z,13.61
2023-05-13T18:30:34.335Z,13.72
2023-05-13T18:32:37.131Z,13.49
2023-05-13T18:34:39.892Z,13.54
2023-05-13T18:36:42.917Z,13.34
2023-05-13T18:38:47.942Z,13.22
2023-05-13T18:40:52.067Z,13.27
2023-05-13T18:42:54.775Z,13.17
2023-05-13T18:44:57.538Z,12.94
2023-05-13T18:47:00.674Z,13.08
2023-05-13T18:49:04.611Z,13.08
2023-05-13T18:51:07.344Z,13.08
2023-05-13T18:53:10.512Z,13.14
2023-05-13T18:55:13.245Z,13.16
2023-05-13T18:57:17.869Z,12.92
2023-05-13T18:59:20.649Z,13.02
2023-05-13T19:01:23.622Z,13.14
2023-05-13T19:03:26.976Z,13.09
2023-05-13T19:05:29.759Z,13.01
2023-05-13T19:08:24.117Z,13.15
2023-05-13T19:10:26.918Z,13.17
2023-05-13T19:12:29.588Z,13.09
2023-05-13T19:14:32.339Z,13.08
2023-05-13T19:16:35.446Z,13.03
2023-05-13T19:18:38.247Z,12.99
2023-05-13T19:20:41.179Z,13.03
2023-05-13T19:22:44.042Z,12.87
2023-05-13T19:24:48.095Z,12.22
2023-05-13T19:26:51.081Z,12.95
2023-05-13T19:28:53.831Z,12.67
2023-05-13T19:30:56.606Z,12.72
2023-05-13T19:32:59.416Z,12.29
2023-05-13T19:35:02.284Z,12.04
2023-05-13T19:37:06.395Z,12.17
2023-05-13T19:39:10.185Z,12.26
2023-05-13T19:41:14.370Z,12.48
2023-05-13T19:43:17.204Z,12.69
2023-05-13T19:45:21.329Z,11.93
2023-05-13T19:47:26.622Z,12.77
2023-05-13T19:49:29.491Z,12.72
2023-05-13T19:51:32.534Z,12.73
2023-05-13T19:53:36.470Z,12.41
2023-05-13T19:55:39.610Z,12.43
2023-05-13T19:57:43.923Z,12.41
2023-05-13T19:59:47.529Z,12.36
2023-05-13T20:01:50.812Z,12.50
2023-05-13T20:03:55.254Z,12.34
2023-05-13T20:05:58.193Z,12.50
2023-05-13T20:08:01.176Z,12.56
2023-05-13T20:10:04.184Z,12.62
2023-05-13T20:12:07.790Z,12.49
2023-05-13T20:14:13.176Z,12.49
2023-05-13T20:16:15.914Z,12.48
2023-05-13T20:18:18.786Z,12.45
2023-05-13T20:20:21.959Z,12.47
2023-05-13T20:22:24.846Z,12.43
2023-05-13T20:24:27.565Z,12.40
2023-05-13T20:26:34.478Z,12.41
2023-05-13T20:28:37.949Z,12.41
2023-05-13T20:30:43.300Z,12.29
2023-05-13T20:32:46.094Z,12.07
2023-05-13T20:34:48.843Z,12.01
2023-05-13T20:36:51.605Z,11.79
2023-05-13T20:38:54.462Z,12.07
2023-05-13T20:40:57.240Z,12.04
2023-05-13T20:43:01.342Z,11.88
2023-05-13T20:45:05.796Z,11.75
2023-05-13T20:47:10.319Z,11.73
2023-05-13T20:49:13.486Z,11.63
2023-05-13T20:51:16.953Z,11.76
2023-05-13T20:53:19.803Z,11.68
2023-05-13T20:55:22.987Z,11.84
2023-05-13T20:57:26.029Z,11.70
2023-05-13T20:59:28.784Z,11.65
2023-05-13T21:01:32.979Z,11.76
2023-05-13T21:03:37.233Z,11.76
2023-05-13T21:05:42.774Z,11.66
2023-05-13T21:07:45.869Z,11.56
2023-05-13T21:09:48.918Z,11.83
2023-05-13T21:11:51.641Z,11.94
2023-05-13T21:13:54.595Z,11.94
2023-05-13T21:16:00.592Z,11.79
2023-05-13T21:18:03.520Z,11.78
2023-05-13T21:20:09.485Z,11.85
2023-05-13T21:22:12.227Z,11.82
2023-05-13T21:24:15.904Z,11.68
2023-05-13T21:26:18.781Z,11.62
2023-05-13T21:28:23.761Z,11.63
2023-05-13T21:30:26.520Z,11.46
2023-05-13T21:32:29.335Z,11.53
2023-05-13T21:34:32.086Z,11.21
2023-05-13T21:36:38.895Z,11.35
2023-05-13T21:38:41.672Z,11.61
2023-05-13T21:40:44.761Z,11.23
2023-05-13T21:42:47.693Z,11.10
2023-05-13T21:44:50.446Z,10.92
2023-05-13T21:46:53.191Z,10.98
2023-05-13T21:48:56.318Z,11.02
2023-05-13T21:50:59.258Z,10.91
2023-05-13T21:53:04.400Z,10.89
2023-05-13T21:55:08.168Z,10.85
2023-05-13T21:57:11.298Z,10.73
2023-05-13T21:59:14.221Z,10.73
2023-05-13T22:01:17.259Z,10.66
2023-05-13T22:03:19.089Z,10.60
2023-05-13T22:05:21.874Z,10.45
2023-05-13T22:07:24.647Z,10.59
2023-05-13T22:09:28.994Z,10.60
2023-05-13T22:11:31.909Z,10.16
2023-05-13T22:13:34.660Z,10.74
2023-05-13T22:15:37.505Z,10.80
2023-05-13T22:17:40.432Z,10.15
2023-05-13T22:19:43.350Z,10.78
2023-05-13T22:21:46.110Z,10.92
2023-05-13T22:23:49.039Z,10.90
2023-05-13T22:25:53.439Z,10.48
2023-05-13T22:27:56.301Z,10.49
2023-05-13T22:29:59.069Z,10.47
2023-05-13T22:32:02.028Z,10.55
2023-05-13T22:34:04.879Z,10.60
2023-05-13T22:36:07.996Z,10.72
2023-05-13T22:38:10.861Z,10.88
2023-05-13T22:40:14.609Z,10.81
2023-05-13T22:42:18.781Z,10.46
2023-05-13T22:44:22.706Z,10.62
2023-05-13T22:46:25.741Z,10.69
2023-05-13T22:48:28.638Z,10.85
2023-05-13T22:50:31.439Z,10.34
2023-05-13T22:52:34.213Z,10.92
2023-05-13T22:54:37.066Z,10.84
2023-05-13T22:56:39.918Z,10.89
2023-05-13T22:58:43.985Z,10.84
2023-05-13T23:00:47.041Z,10.94
2023-05-13T23:02:49.878Z,10.82
2023-05-13T23:04:53.518Z,10.87
2023-05-13T23:06:56.266Z,10.83
2023-05-13T23:08:59.101Z,11.10
2023-05-13T23:11:01.853Z,10.95
2023-05-13T23:13:05.733Z,11.12
2023-05-13T23:15:11.690Z,10.98
2023-05-13T23:17:14.505Z,11.31
2023-05-13T23:19:17.233Z,11.24
2023-05-13T23:21:19.989Z,11.07
2023-05-13T23:23:23.124Z,10.42
2023-05-13T23:25:25.836Z,11.18
2023-05-13T23:27:31.360Z,10.99
2023-05-13T23:29:34.114Z,11.16
2023-05-13T23:31:40.208Z,11.09
2023-05-13T23:33:43.097Z,11.26
2023-05-13T23:35:45.895Z,11.12
2023-05-13T23:37:48.638Z,11.30
2023-05-13T23:39:51.371Z,11.12
2023-05-13T23:41:54.089Z,11.19
2023-05-13T23:43:56.881Z,11.18
2023-05-13T23:45:59.668Z,11.21
2023-05-13T23:48:03.874Z,11.26
2023-05-13T23:50:08.696Z,10.39
2023-05-13T23:52:11.501Z,11.22
2023-05-13T23:54:14.267Z,11.38
2023-05-13T23:56:17.002Z,11.05
2023-05-13T23:58:19.805Z,11.22
